Time;durP1;ratioP1;P1;durP2;ratioP2;P2;SDS_P1;SDS_P2;PMS_P1;PMS_P2;Temp;Humidity;BMP_temperature;BMP_pressure;BME280_temperature;BME280_humidity;BME280_pressure;Samples;Min_cycle;Max_cycle;Signal;HPM_P1;HPM_P2
2021/11/04 00:02:05;;;;;;;14.25;12.27;;;;;;;;;;5092133;28;20127;-67
2021/11/04 00:04:30;;;;;;;13.55;12.18;;;;;;;;;;5102363;28;20530;-67
2021/11/04 00:06:55;;;;;;;14.50;13.00;;;;;;;;;;5105159;28;20019;-68
2021/11/04 00:09:21;;;;;;;14.95;13.23;;;;;;;;;;5103165;28;20516;-67
2021/11/04 00:11:46;;;;;;;14.77;13.27;;;;;;;;;;5071707;28;20032;-67
2021/11/04 00:14:11;;;;;;;14.45;12.95;;;;;;;;;;5087348;28;20028;-67
2021/11/04 00:16:36;;;;;;;14.38;12.85;;;;;;;;;;5098533;28;20023;-67
2021/11/04 00:19:02;;;;;;;14.25;12.57;;;;;;;;;;5111526;28;20039;-67
2021/11/04 00:21:28;;;;;;;13.77;12.32;;;;;;;;;;5081190;28;20058;-68
2021/11/04 00:23:53;;;;;;;13.75;12.35;;;;;;;;;;5075750;28;20020;-67
2021/11/04 00:26:18;;;;;;;15.52;13.07;;;;;;;;;;5095517;28;20078;-66
2021/11/04 00:28:43;;;;;;;13.30;11.90;;;;;;;;;;5085085;28;20075;-67
2021/11/04 00:31:09;;;;;;;14.93;13.32;;;;;;;;;;5093126;28;20488;-66
2021/11/04 00:33:35;;;;;;;16.05;14.35;;;;;;;;;;5093161;28;20434;-67
2021/11/04 00:36:00;;;;;;;15.45;13.63;;;;;;;;;;5092547;28;20016;-67
2021/11/04 00:38:25;;;;;;;17.27;14.30;;;;;;;;;;5096297;28;20028;-67
2021/11/04 00:40:50;;;;;;;15.18;13.10;;;;;;;;;;5113166;28;20031;-67
2021/11/04 00:43:16;;;;;;;14.80;13.20;;;;;;;;;;5100633;28;20032;-67
2021/11/04 00:45:41;;;;;;;17.05;15.13;;;;;;;;;;5092120;28;20116;-67
2021/11/04 00:48:06;;;;;;;14.75;13.25;;;;;;;;;;5104006;28;20035;-67
2021/11/04 00:50:31;;;;;;;16.13;14.43;;;;;;;;;;5091735;28;20042;-67
2021/11/04 00:52:57;;;;;;;14.93;13.32;;;;;;;;;;5087908;28;20392;-67
2021/11/04 00:55:23;;;;;;;14.73;13.18;;;;;;;;;;5094002;28;20020;-67
2021/11/04 00:57:49;;;;;;;15.45;13.63;;;;;;;;;;5098491;28;20291;-67
2021/11/04 01:00:15;;;;;;;16.13;14.43;;;;;;;;;;5076855;28;20027;-67
2021/11/04 01:02:40;;;;;;;16.02;13.98;;;;;;;;;;5077283;28;20021;-67
2021/11/04 01:05:06;;;;;;;15.10;13.27;;;;;;;;;;5103615;28;20468;-67
2021/11/04 01:07:31;;;;;;;15.40;13.73;;;;;;;;;;5103563;28;20028;-67
2021/11/04 01:09:56;;;;;;;14.70;13.10;;;;;;;;;;5105527;28;20402;-67
2021/11/04 01:12:21;;;;;;;14.13;12.57;;;;;;;;;;5095913;28;20407;-67
2021/11/04 01:14:47;;;;;;;14.65;13.10;;;;;;;;;;5111731;28;20020;-67
2021/11/04 01:17:12;;;;;;;14.05;12.52;;;;;;;;;;5072704;28;20019;-67
2021/11/04 01:19:37;;;;;;;15.00;13.38;;;;;;;;;;5099818;28;20516;-67
2021/11/04 01:22:03;;;;;;;14.90;13.35;;;;;;;;;;5095799;28;20092;-67
2021/11/04 01:24:28;;;;;;;15.25;13.60;;;;;;;;;;5108320;28;20392;-67
2021/11/04 01:26:54;;;;;;;15.60;13.60;;;;;;;;;;5097181;28;20353;-67
2021/11/04 01:29:19;;;;;;;14.50;12.90;;;;;;;;;;5090215;28;20086;-67
2021/11/04 01:31:44;;;;;;;14.43;12.77;;;;;;;;;;5077640;28;20123;-67
2021/11/04 01:34:09;;;;;;;13.30;11.93;;;;;;;;;;5084578;28;20023;-67
2021/11/04 01:36:35;;;;;;;14.13;12.65;;;;;;;;;;5092950;28;20046;-67
2021/11/04 01:39:00;;;;;;;14.85;12.88;;;;;;;;;;5098393;28;20032;-67
2021/11/04 01:41:25;;;;;;;16.30;14.43;;;;;;;;;;5104220;28;20027;-68
2021/11/04 01:43:51;;;;;;;15.52;13.45;;;;;;;;;;5094177;28;20465;-67
2021/11/04 01:46:20;;;;;;;15.55;13.90;;;;;;;;;;5092718;28;20168;-66
2021/11/04 01:48:45;;;;;;;16.13;13.95;;;;;;;;;;5106990;28;20482;-66
2021/11/04 01:51:11;;;;;;;15.80;14.07;;;;;;;;;;5103522;28;20106;-67
2021/11/04 01:53:36;;;;;;;15.70;13.98;;;;;;;;;;5105476;28;20115;-67
2021/11/04 01:56:01;;;;;;;16.35;14.65;;;;;;;;;;5106080;28;20069;-67
2021/11/04 01:58:26;;;;;;;16.05;13.77;;;;;;;;;;5090685;28;20095;-67
2021/11/04 02:00:53;;;;;;;15.07;13.48;;;;;;;;;;5088919;28;20028;-67
2021/11/04 02:03:24;;;;;;;14.10;12.68;;;;;;;;;;5094393;28;20495;-67
2021/11/04 02:06:07;;;;;;;15.07;13.52;;;;;;;;;;5098412;28;20077;-67
2021/11/04 02:08:44;;;;;;;16.20;14.32;;;;;;;;;;5095226;28;20069;-67
2021/11/04 02:11:12;;;;;;;15.77;13.95;;;;;;;;;;5080700;28;20059;-66
2021/11/04 02:13:43;;;;;;;17.55;14.52;;;;;;;;;;5091579;28;20381;-67
2021/11/04 02:16:09;;;;;;;15.30;13.70;;;;;;;;;;5083262;28;20016;-66
2021/11/04 02:18:35;;;;;;;15.27;13.68;;;;;;;;;;5090724;28;20023;-67
2021/11/04 02:21:03;;;;;;;17.65;14.65;;;;;;;;;;5102674;28;20016;-67
2021/11/04 02:23:49;;;;;;;16.17;14.43;;;;;;;;;;5093991;28;20535;-66
2021/11/04 02:26:15;;;;;;;15.07;13.55;;;;;;;;;;5094365;28;20032;-67
2021/11/04 02:28:40;;;;;;;16.33;14.32;;;;;;;;;;5094580;28;20031;-67
2021/11/04 02:31:07;;;;;;;17.13;15.27;;;;;;;;;;5069502;28;20036;-66
2021/11/04 02:33:32;;;;;;;16.13;14.13;;;;;;;;;;5093437;28;20019;-67
2021/11/04 02:35:58;;;;;;;16.55;14.70;;;;;;;;;;5106996;28;20453;-67
2021/11/04 02:38:27;;;;;;;19.02;15.13;;;;;;;;;;5074398;28;20066;-67
2021/11/04 02:40:53;;;;;;;16.98;14.43;;;;;;;;;;5095688;28;20026;-67
2021/11/04 02:43:18;;;;;;;16.08;14.35;;;;;;;;;;5108934;28;20148;-67
2021/11/04 02:49:15;;;;;;;17.67;15.38;;;;;;;;;;5084480;28;20387;-67
2021/11/04 02:51:40;;;;;;;17.67;15.77;;;;;;;;;;5079713;28;20460;-68
2021/11/04 02:54:06;;;;;;;17.25;15.00;;;;;;;;;;5091462;28;20020;-67
2021/11/04 02:56:41;;;;;;;17.33;15.52;;;;;;;;;;5096995;28;20027;-67
2021/11/04 02:59:07;;;;;;;;;;;;;;;;;;5091028;28;20089;-67
2021/11/04 03:01:32;;;;;;;18.27;15.57;;;;;;;;;;5090093;28;20002;-67
2021/11/04 03:03:57;;;;;;;17.83;15.93;;;;;;;;;;5069968;28;20560;-68
2021/11/04 03:06:22;;;;;;;18.30;15.68;;;;;;;;;;5105477;28;20484;-68
2021/11/04 03:08:47;;;;;;;18.27;16.10;;;;;;;;;;5084403;28;20039;-67
2021/11/04 03:11:13;;;;;;;17.83;15.57;;;;;;;;;;5112196;28;20027;-67
2021/11/04 03:13:38;;;;;;;17.85;15.07;;;;;;;;;;5085608;28;20028;-68
2021/11/04 03:16:03;;;;;;;16.83;14.63;;;;;;;;;;5082997;28;20016;-66
2021/11/04 03:18:28;;;;;;;16.55;14.50;;;;;;;;;;5107251;28;20031;-66
2021/11/04 03:20:54;;;;;;;19.08;16.38;;;;;;;;;;5088524;28;20028;-66
2021/11/04 03:23:19;;;;;;;17.55;15.52;;;;;;;;;;5071693;28;20048;-67
2021/11/04 03:25:46;;;;;;;19.60;16.95;;;;;;;;;;5089860;28;20028;-67
2021/11/04 03:28:11;;;;;;;20.33;17.13;;;;;;;;;;5086370;28;20118;-66
2021/11/04 03:30:38;;;;;;;18.83;16.48;;;;;;;;;;5102611;28;20131;-66
2021/11/04 03:33:04;;;;;;;19.92;17.00;;;;;;;;;;5102585;28;20016;-67
2021/11/04 03:35:30;;;;;;;20.52;17.35;;;;;;;;;;5093890;28;20510;-66
2021/11/04 03:37:57;;;;;;;19.50;16.95;;;;;;;;;;5105025;28;20023;-66
2021/11/04 03:40:22;;;;;;;17.70;15.93;;;;;;;;;;5088581;28;20088;-66
2021/11/04 03:42:48;;;;;;;17.35;15.50;;;;;;;;;;5098313;28;20111;-66
2021/11/04 03:45:14;;;;;;;19.80;16.13;;;;;;;;;;5099278;28;20073;-66
2021/11/04 03:47:40;;;;;;;21.77;18.05;;;;;;;;;;5097125;28;20032;-65
2021/11/04 03:50:06;;;;;;;20.48;17.60;;;;;;;;;;5084591;28;20071;-67
2021/11/04 03:52:31;;;;;;;19.73;16.77;;;;;;;;;;5091241;28;20557;-67
2021/11/04 03:54:56;;;;;;;19.63;16.30;;;;;;;;;;5105254;28;20060;-67
2021/11/04 03:57:25;;;;;;;19.52;17.42;;;;;;;;;;5086489;28;20158;-66
2021/11/04 03:59:51;;;;;;;18.17;15.93;;;;;;;;;;5106798;28;20039;-66
2021/11/04 04:02:16;;;;;;;19.40;16.60;;;;;;;;;;5103979;28;20023;-67
2021/11/04 04:04:41;;;;;;;17.48;15.60;;;;;;;;;;5088807;28;20036;-67
2021/11/04 04:07:07;;;;;;;16.50;14.68;;;;;;;;;;5094012;28;20063;-68
2021/11/04 04:09:32;;;;;;;17.70;15.80;;;;;;;;;;5096056;28;20032;-67
2021/11/04 04:11:57;;;;;;;17.88;15.70;;;;;;;;;;5094816;28;20046;-67
2021/11/04 04:14:22;;;;;;;17.90;16.05;;;;;;;;;;5115300;28;20034;-66
2021/11/04 04:16:48;;;;;;;18.13;16.20;;;;;;;;;;5102784;28;20027;-67
2021/11/04 04:19:13;;;;;;;18.60;16.25;;;;;;;;;;5098152;28;20460;-67
2021/11/04 04:21:39;;;;;;;18.90;16.92;;;;;;;;;;5089266;28;20094;-67
2021/11/04 04:24:04;;;;;;;18.55;16.55;;;;;;;;;;5093283;28;20027;-67
2021/11/04 04:26:30;;;;;;;20.40;17.05;;;;;;;;;;5100302;28;20023;-66
2021/11/04 04:28:55;;;;;;;19.77;17.67;;;;;;;;;;5095430;28;20036;-67
2021/11/04 04:31:20;;;;;;;19.73;17.63;;;;;;;;;;5096228;28;20093;-67
2021/11/04 04:33:45;;;;;;;21.13;18.90;;;;;;;;;;5080845;28;20028;-66
2021/11/04 04:36:10;;;;;;;21.75;18.58;;;;;;;;;;5076263;28;20492;-66
2021/11/04 04:38:36;;;;;;;20.30;18.10;;;;;;;;;;5095110;28;20047;-66
2021/11/04 04:41:02;;;;;;;21.98;19.10;;;;;;;;;;5092513;28;20024;-66
2021/11/04 04:43:27;;;;;;;22.17;19.50;;;;;;;;;;5098647;28;20032;-68
2021/11/04 04:45:52;;;;;;;22.88;19.92;;;;;;;;;;5090445;28;20424;-67
2021/11/04 04:48:17;;;;;;;23.48;20.27;;;;;;;;;;5092626;28;20031;-67
2021/11/04 04:50:43;;;;;;;22.98;19.95;;;;;;;;;;5103646;28;20031;-67
2021/11/04 04:53:08;;;;;;;22.02;19.67;;;;;;;;;;5092557;28;20012;-67
2021/11/04 04:55:33;;;;;;;21.90;19.60;;;;;;;;;;5097026;28;20012;-67
2021/11/04 04:57:59;;;;;;;22.92;20.50;;;;;;;;;;5099004;28;20559;-67
2021/11/04 05:00:24;;;;;;;23.58;20.60;;;;;;;;;;5092694;28;20024;-67
2021/11/04 05:02:49;;;;;;;25.70;22.33;;;;;;;;;;5092259;28;20383;-66
2021/11/04 05:05:15;;;;;;;25.30;21.73;;;;;;;;;;5094306;28;20185;-67
2021/11/04 05:07:40;;;;;;;26.83;22.83;;;;;;;;;;5107229;28;20116;-67
2021/11/04 05:10:06;;;;;;;26.08;22.45;;;;;;;;;;5104040;28;20024;-66
2021/11/04 05:12:31;;;;;;;27.52;23.35;;;;;;;;;;5103524;28;20019;-67
2021/11/04 05:14:57;;;;;;;26.02;23.20;;;;;;;;;;5081786;28;20206;-67
2021/11/04 05:17:22;;;;;;;27.02;22.73;;;;;;;;;;5097805;28;20015;-66
2021/11/04 05:19:47;;;;;;;26.13;23.13;;;;;;;;;;5112268;28;20490;-67
2021/11/04 05:22:13;;;;;;;27.13;23.35;;;;;;;;;;5091521;28;20496;-66
2021/11/04 05:24:38;;;;;;;29.83;24.15;;;;;;;;;;5085655;28;20416;-67
2021/11/04 05:27:04;;;;;;;27.85;23.67;;;;;;;;;;5091431;28;20022;-66
2021/11/04 05:29:30;;;;;;;28.48;24.58;;;;;;;;;;5091537;28;20061;-66
2021/11/04 05:31:56;;;;;;;26.60;23.55;;;;;;;;;;5098975;28;20028;-67
2021/11/04 05:34:21;;;;;;;26.98;23.48;;;;;;;;;;5081419;28;20116;-67
2021/11/04 05:36:46;;;;;;;30.42;25.35;;;;;;;;;;5099170;28;20531;-67
2021/11/04 05:39:12;;;;;;;28.25;24.15;;;;;;;;;;5087014;28;20016;-67
2021/11/04 05:41:37;;;;;;;26.90;23.60;;;;;;;;;;5080284;28;20027;-67
2021/11/04 05:44:02;;;;;;;27.25;24.15;;;;;;;;;;5106253;28;20020;-67
2021/11/04 05:46:27;;;;;;;26.92;21.60;;;;;;;;;;5092280;28;20577;-67
2021/11/04 05:48:52;;;;;;;30.50;23.10;;;;;;;;;;5088042;28;20383;-67
2021/11/04 05:51:18;;;;;;;27.67;22.08;;;;;;;;;;5091249;28;20472;-67
2021/11/04 05:53:43;;;;;;;27.77;22.70;;;;;;;;;;5091756;28;20024;-67
2021/11/04 05:56:08;;;;;;;30.77;22.48;;;;;;;;;;5090893;28;20495;-67
2021/11/04 05:58:33;;;;;;;27.20;21.75;;;;;;;;;;5091806;28;20027;-67
2021/11/04 06:00:58;;;;;;;28.27;22.00;;;;;;;;;;5097272;28;20042;-67
2021/11/04 06:03:24;;;;;;;28.30;21.42;;;;;;;;;;5104371;28;20031;-67
2021/11/04 06:05:49;;;;;;;30.33;23.77;;;;;;;;;;5094021;28;20114;-68
2021/11/04 06:08:14;;;;;;;28.42;22.80;;;;;;;;;;5098518;28;20028;-67
2021/11/04 06:10:40;;;;;;;29.50;23.50;;;;;;;;;;5089908;28;20038;-66
2021/11/04 06:13:05;;;;;;;30.92;24.10;;;;;;;;;;5085321;28;20476;-68
2021/11/04 06:15:30;;;;;;;29.00;23.50;;;;;;;;;;5089665;28;20472;-66
2021/11/04 06:17:56;;;;;;;30.50;23.85;;;;;;;;;;5092322;28;20044;-66
2021/11/04 06:20:21;;;;;;;30.00;24.02;;;;;;;;;;5090017;28;20055;-67
2021/11/04 06:22:46;;;;;;;31.08;24.55;;;;;;;;;;5095001;28;20019;-66
2021/11/04 06:25:11;;;;;;;30.17;22.77;;;;;;;;;;5074081;28;20463;-66
2021/11/04 06:27:37;;;;;;;29.13;23.85;;;;;;;;;;5087842;28;20385;-66
2021/11/04 06:30:04;;;;;;;28.45;23.20;;;;;;;;;;5091566;28;20032;-66
2021/11/04 06:32:29;;;;;;;28.52;22.75;;;;;;;;;;5100182;28;20023;-66
2021/11/04 06:34:54;;;;;;;27.27;21.98;;;;;;;;;;5093819;28;20384;-67
2021/11/04 06:37:20;;;;;;;30.20;23.35;;;;;;;;;;5109732;28;20022;-66
2021/11/04 06:39:45;;;;;;;27.75;22.17;;;;;;;;;;5092763;28;20032;-65
2021/11/04 06:42:10;;;;;;;28.90;22.17;;;;;;;;;;5091506;28;20019;-66
2021/11/04 06:44:36;;;;;;;26.40;22.00;;;;;;;;;;5074810;28;20028;-67
2021/11/04 06:47:01;;;;;;;24.70;20.92;;;;;;;;;;5091848;28;20028;-66
2021/11/04 06:49:28;;;;;;;25.02;20.27;;;;;;;;;;5091080;28;20491;-66
2021/11/04 06:51:54;;;;;;;24.15;19.77;;;;;;;;;;5086668;28;20023;-66
2021/11/04 06:54:22;;;;;;;23.20;18.35;;;;;;;;;;5101052;28;20012;-66
2021/11/04 06:56:48;;;;;;;24.15;18.75;;;;;;;;;;5096325;28;20020;-66
2021/11/04 06:59:16;;;;;;;20.13;17.15;;;;;;;;;;5091501;28;20513;-66
2021/11/04 07:01:44;;;;;;;20.33;16.70;;;;;;;;;;5091291;28;20024;-66
2021/11/04 07:04:11;;;;;;;20.23;16.67;;;;;;;;;;5094323;28;20027;-66
2021/11/04 07:06:44;;;;;;;18.33;15.10;;;;;;;;;;5094033;28;20035;-67
2021/11/04 07:09:10;;;;;;;17.48;14.98;;;;;;;;;;5096590;28;20464;-66
2021/11/04 07:11:35;;;;;;;17.23;14.55;;;;;;;;;;5094413;28;20063;-66
2021/11/04 07:14:00;;;;;;;18.15;15.20;;;;;;;;;;5091687;28;20051;-66
2021/11/04 07:16:27;;;;;;;15.05;13.02;;;;;;;;;;5092028;28;20027;-66
2021/11/04 07:18:54;;;;;;;14.93;12.45;;;;;;;;;;5057185;28;20035;-66
2021/11/04 07:21:28;;;;;;;12.85;11.00;;;;;;;;;;5087322;28;20027;-67
2021/11/04 07:24:06;;;;;;;16.05;12.70;;;;;;;;;;5097233;28;20081;-66
2021/11/04 07:26:36;;;;;;;15.55;12.40;;;;;;;;;;5102089;28;20451;-66
2021/11/04 07:29:05;;;;;;;15.02;12.55;;;;;;;;;;5116239;28;20106;-67
2021/11/04 07:31:34;;;;;;;12.90;10.98;;;;;;;;;;5095711;28;20048;-67
2021/11/04 07:34:01;;;;;;;13.73;10.93;;;;;;;;;;5077229;28;20031;-67
2021/11/04 07:36:27;;;;;;;13.90;10.45;;;;;;;;;;5104612;28;20023;-67
2021/11/04 07:38:53;;;;;;;13.23;10.43;;;;;;;;;;5094884;28;20056;-65
2021/11/04 07:41:18;;;;;;;11.27;10.07;;;;;;;;;;5095393;28;20036;-66
2021/11/04 07:43:45;;;;;;;10.32;9.15;;;;;;;;;;5093462;28;20028;-65
2021/11/04 07:46:10;;;;;;;11.50;9.38;;;;;;;;;;5099979;28;20036;-66
2021/11/04 07:48:36;;;;;;;10.85;9.23;;;;;;;;;;5097969;28;20067;-66
2021/11/04 07:51:01;;;;;;;11.65;8.77;;;;;;;;;;5092147;28;20427;-66
2021/11/04 07:53:26;;;;;;;11.05;8.25;;;;;;;;;;5093458;28;20036;-66
2021/11/04 07:55:52;;;;;;;9.50;7.88;;;;;;;;;;5095038;28;20085;-66
2021/11/04 07:58:17;;;;;;;9.57;8.57;;;;;;;;;;5104745;28;20575;-66
2021/11/04 08:00:43;;;;;;;9.93;8.70;;;;;;;;;;5100907;28;20027;-66
2021/11/04 08:03:08;;;;;;;8.57;7.50;;;;;;;;;;5094576;28;20013;-67
2021/11/04 08:05:34;;;;;;;10.43;7.85;;;;;;;;;;5094581;28;20444;-66
2021/11/04 08:07:59;;;;;;;9.13;7.82;;;;;;;;;;5094893;28;20008;-65
2021/11/04 08:10:24;;;;;;;9.30;7.90;;;;;;;;;;5101659;28;20026;-67
2021/11/04 08:12:49;;;;;;;10.45;8.45;;;;;;;;;;5085864;28;20487;-67
2021/11/04 08:15:15;;;;;;;10.23;8.35;;;;;;;;;;5104454;28;20421;-65
2021/11/04 08:17:40;;;;;;;8.25;7.10;;;;;;;;;;5102028;28;20016;-66
2021/11/04 08:20:07;;;;;;;8.73;7.28;;;;;;;;;;5095184;28;20023;-66
2021/11/04 08:22:32;;;;;;;7.43;6.60;;;;;;;;;;5094143;28;20039;-66
2021/11/04 08:24:58;;;;;;;7.45;6.28;;;;;;;;;;5095318;28;20076;-66
2021/11/04 08:27:23;;;;;;;7.32;6.45;;;;;;;;;;5075589;28;20376;-66
2021/11/04 08:29:48;;;;;;;7.57;6.78;;;;;;;;;;5075522;28;20519;-66
2021/11/04 08:32:13;;;;;;;9.45;5.55;;;;;;;;;;5096808;28;20049;-66
2021/11/04 08:34:39;;;;;;;7.65;5.25;;;;;;;;;;5112396;28;20103;-67
2021/11/04 08:37:04;;;;;;;6.15;5.13;;;;;;;;;;5103477;28;20539;-66
2021/11/04 08:39:30;;;;;;;5.88;5.28;;;;;;;;;;5099358;28;20040;-66
2021/11/04 08:41:56;;;;;;;6.07;4.72;;;;;;;;;;5105368;28;20552;-66
2021/11/04 08:44:21;;;;;;;5.55;4.78;;;;;;;;;;5114749;28;20026;-66
2021/11/04 08:46:47;;;;;;;3.67;3.28;;;;;;;;;;5098956;28;20430;-67
2021/11/04 08:49:12;;;;;;;3.45;3.15;;;;;;;;;;5093536;28;20032;-66
2021/11/04 08:51:37;;;;;;;4.50;3.33;;;;;;;;;;5088365;28;20426;-66
2021/11/04 08:54:03;;;;;;;2.22;2.03;;;;;;;;;;5075897;28;20017;-66
2021/11/04 08:56:28;;;;;;;3.10;2.80;;;;;;;;;;5093368;28;20026;-66
2021/11/04 08:58:53;;;;;;;3.58;3.28;;;;;;;;;;5097438;28;20114;-66
2021/11/04 09:01:19;;;;;;;2.95;2.30;;;;;;;;;;5093044;28;20020;-66
2021/11/04 09:03:44;;;;;;;2.72;2.28;;;;;;;;;;5093322;28;20016;-64
2021/11/04 09:06:10;;;;;;;3.92;2.53;;;;;;;;;;5092934;28;20016;-66
2021/11/04 09:08:35;;;;;;;2.58;2.38;;;;;;;;;;5092867;28;20035;-75
2021/11/04 09:11:00;;;;;;;3.10;2.78;;;;;;;;;;5075926;28;20179;-75
2021/11/04 09:13:25;;;;;;;4.68;2.75;;;;;;;;;;5097260;28;20016;-72
2021/11/04 09:15:51;;;;;;;3.22;2.90;;;;;;;;;;5093182;28;20024;-72
2021/11/04 09:18:17;;;;;;;3.17;2.05;;;;;;;;;;5105724;28;20450;-71
2021/11/04 09:20:42;;;;;;;3.13;2.80;;;;;;;;;;5091141;28;20082;-71
2021/11/04 09:23:08;;;;;;;2.67;2.35;;;;;;;;;;5090585;28;20435;-68
2021/11/04 09:25:36;;;;;;;3.85;2.63;;;;;;;;;;5092966;28;20031;-69
2021/11/04 09:28:02;;;;;;;2.70;2.20;;;;;;;;;;5100945;28;20564;-71
2021/11/04 09:30:27;;;;;;;3.65;2.60;;;;;;;;;;5107668;28;20039;-72
2021/11/04 09:32:53;;;;;;;3.13;2.83;;;;;;;;;;5087135;28;20469;-71
2021/11/04 09:35:19;;;;;;;3.42;2.70;;;;;;;;;;5075187;28;20102;-69
2021/11/04 09:37:44;;;;;;;3.72;3.00;;;;;;;;;;5074155;28;20028;-68
2021/11/04 09:40:10;;;;;;;3.80;2.80;;;;;;;;;;5093223;28;20056;-74
2021/11/04 09:42:36;;;;;;;4.97;2.65;;;;;;;;;;5075572;28;20085;-72
2021/11/04 09:45:01;;;;;;;2.22;2.03;;;;;;;;;;5093008;28;20039;-72
2021/11/04 09:47:31;;;;;;;2.22;2.00;;;;;;;;;;5095883;28;20527;-70
2021/11/04 09:49:57;;;;;;;1.63;1.52;;;;;;;;;;5092912;28;20039;-71
2021/11/04 09:52:23;;;;;;;2.22;2.03;;;;;;;;;;5086627;28;20016;-66
2021/11/04 09:54:49;;;;;;;2.10;1.90;;;;;;;;;;5090575;28;20016;-69
2021/11/04 09:57:15;;;;;;;3.05;2.42;;;;;;;;;;5073314;28;20107;-69
2021/11/04 09:59:41;;;;;;;2.83;2.63;;;;;;;;;;5075326;28;20557;-70
2021/11/04 10:02:13;;;;;;;2.78;2.45;;;;;;;;;;5078287;28;20023;-69
2021/11/04 10:04:40;;;;;;;2.60;2.40;;;;;;;;;;5073075;28;20070;-71
2021/11/04 10:07:07;;;;;;;2.30;2.10;;;;;;;;;;5091936;28;20032;-71
2021/11/04 10:09:33;;;;;;;2.75;2.30;;;;;;;;;;5091707;28;20089;-70
2021/11/04 10:12:03;;;;;;;2.28;1.70;;;;;;;;;;5075471;28;20483;-70
2021/11/04 10:14:31;;;;;;;1.70;1.60;;;;;;;;;;5088928;28;20031;-70
2021/11/04 10:16:56;;;;;;;1.52;1.30;;;;;;;;;;5108149;28;20016;-71
2021/11/04 10:19:23;;;;;;;1.73;1.63;;;;;;;;;;5092537;28;20032;-70
2021/11/04 10:21:51;;;;;;;2.47;1.63;;;;;;;;;;5087397;28;20059;-70
2021/11/04 10:24:16;;;;;;;1.77;1.67;;;;;;;;;;5076815;28;20477;-70
2021/11/04 10:26:41;;;;;;;1.83;0.63;;;;;;;;;;5106900;28;20388;-69
2021/11/04 10:29:08;;;;;;;1.45;0.90;;;;;;;;;;5112757;28;20019;-71
2021/11/04 10:31:37;;;;;;;0.65;0.40;;;;;;;;;;5091487;28;20071;-71
2021/11/04 10:34:03;;;;;;;0.95;0.20;;;;;;;;;;5073907;28;20050;-71
2021/11/04 10:36:28;;;;;;;0.40;0.30;;;;;;;;;;5090676;28;20464;-70
2021/11/04 10:38:55;;;;;;;0.50;0.22;;;;;;;;;;5083224;28;20049;-71
2021/11/04 10:41:22;;;;;;;0.68;0.35;;;;;;;;;;5104867;28;20392;-71
2021/11/04 10:43:52;;;;;;;0.60;0.30;;;;;;;;;;5090198;28;20024;-71
2021/11/04 10:46:18;;;;;;;2.92;0.20;;;;;;;;;;5091009;28;20119;-71
2021/11/04 10:48:47;;;;;;;0.30;0.25;;;;;;;;;;5091353;28;20433;-72
2021/11/04 10:51:18;;;;;;;0.40;0.30;;;;;;;;;;5090491;28;20024;-72
2021/11/04 10:53:54;;;;;;;0.80;0.60;;;;;;;;;;5087268;28;20047;-71
2021/11/04 10:56:20;;;;;;;0.30;0.25;;;;;;;;;;5092513;28;20016;-72
2021/11/04 10:58:56;;;;;;;1.27;0.20;;;;;;;;;;5079917;28;20035;-72
2021/11/04 11:01:40;;;;;;;0.30;0.20;;;;;;;;;;5077164;28;20439;-72
2021/11/04 11:04:08;;;;;;;0.20;0.20;;;;;;;;;;5097216;28;20019;-72
2021/11/04 11:06:38;;;;;;;0.43;0.30;;;;;;;;;;5087631;28;20016;-72
2021/11/04 11:09:05;;;;;;;1.38;0.20;;;;;;;;;;5079855;28;20100;-72
2021/11/04 11:11:31;;;;;;;0.40;0.20;;;;;;;;;;5097853;28;20031;-73
2021/11/04 11:13:56;;;;;;;0.20;0.13;;;;;;;;;;5101400;28;20024;-72
2021/11/04 11:16:21;;;;;;;0.38;0.28;;;;;;;;;;5114536;28;20023;-70
2021/11/04 11:18:46;;;;;;;0.20;0.20;;;;;;;;;;5100920;28;20019;-71
2021/11/04 11:21:12;;;;;;;0.20;0.10;;;;;;;;;;5106322;28;20023;-71
2021/11/04 11:23:37;;;;;;;0.22;0.13;;;;;;;;;;5099671;28;20059;-71
2021/11/04 11:26:04;;;;;;;0.50;0.20;;;;;;;;;;5082895;28;20030;-73
2021/11/04 11:28:30;;;;;;;0.28;0.20;;;;;;;;;;5097549;28;20070;-74
2021/11/04 11:31:11;;;;;;;0.50;0.10;;;;;;;;;;5099114;28;20044;-73
2021/11/04 11:33:39;;;;;;;0.10;0.00;;;;;;;;;;5097568;28;20069;-73
2021/11/04 11:36:07;;;;;;;0.30;0.13;;;;;;;;;;5097568;28;20111;-73
2021/11/04 11:38:52;;;;;;;0.20;0.10;;;;;;;;;;5096590;28;20423;-74
2021/11/04 11:41:17;;;;;;;0.20;0.20;;;;;;;;;;5097311;28;20032;-73
2021/11/04 11:43:58;;;;;;;0.20;0.10;;;;;;;;;;5097624;28;20118;-73
2021/11/04 11:46:24;;;;;;;0.40;0.20;;;;;;;;;;5097818;28;20032;-73
2021/11/04 11:49:08;;;;;;;0.40;0.20;;;;;;;;;;5083063;28;20522;-73
2021/11/04 11:51:45;;;;;;;0.77;0.20;;;;;;;;;;5095865;28;20028;-73
2021/11/04 11:54:10;;;;;;;0.40;0.13;;;;;;;;;;5098044;28;20015;-73
2021/11/04 11:56:35;;;;;;;0.88;0.30;;;;;;;;;;5098094;28;20080;-72
2021/11/04 11:59:16;;;;;;;0.73;0.35;;;;;;;;;;5106623;28;20118;-73
2021/11/04 12:01:46;;;;;;;0.20;0.20;;;;;;;;;;5099445;28;20093;-73
2021/11/04 12:04:24;;;;;;;0.50;0.20;;;;;;;;;;5105661;28;20019;-73
2021/11/04 12:06:50;;;;;;;0.10;0.10;;;;;;;;;;5107435;28;20051;-72
2021/11/04 12:09:34;;;;;;;1.65;0.20;;;;;;;;;;5097387;28;20031;-71
2021/11/04 12:11:59;;;;;;;0.80;0.10;;;;;;;;;;5095655;28;20016;-71
2021/11/04 12:14:24;;;;;;;0.15;0.05;;;;;;;;;;5056805;28;20121;-71
2021/11/04 12:17:05;;;;;;;0.45;0.10;;;;;;;;;;5092839;28;20016;-72
2021/11/04 12:19:55;;;;;;;0.08;0.08;;;;;;;;;;5093549;28;20209;-72
2021/11/04 12:22:20;;;;;;;0.43;0.08;;;;;;;;;;5078693;28;20105;-72
2021/11/04 12:24:50;;;;;;;0.13;0.10;;;;;;;;;;5096788;28;20491;-72
2021/11/04 12:27:16;;;;;;;0.10;0.00;;;;;;;;;;5075958;28;20387;-72
2021/11/04 12:29:41;;;;;;;0.32;0.10;;;;;;;;;;5075922;28;20132;-72
2021/11/04 12:32:16;;;;;;;0.08;0.00;;;;;;;;;;5096910;28;20026;-72
2021/11/04 12:34:53;;;;;;;0.55;0.10;;;;;;;;;;5076364;28;20077;-72
2021/11/04 12:37:18;;;;;;;0.30;0.10;;;;;;;;;;5075618;28;20022;-72
2021/11/04 12:39:45;;;;;;;0.20;0.10;;;;;;;;;;5094881;28;20110;-71
2021/11/04 12:42:12;;;;;;;0.65;0.20;;;;;;;;;;5075940;28;20035;-72
2021/11/04 12:44:38;;;;;;;0.10;0.00;;;;;;;;;;5103976;28;20039;-72
2021/11/04 12:47:06;;;;;;;0.00;0.00;;;;;;;;;;5075905;28;20032;-72
2021/11/04 12:49:32;;;;;;;0.00;0.00;;;;;;;;;;5081933;28;20078;-72
2021/11/04 12:51:59;;;;;;;0.28;0.10;;;;;;;;;;5081284;28;20017;-72
2021/11/04 12:54:25;;;;;;;0.20;0.10;;;;;;;;;;5093285;28;20019;-71
2021/11/04 12:56:57;;;;;;;0.22;0.10;;;;;;;;;;5085806;28;20019;-72
2021/11/04 12:59:31;;;;;;;0.32;0.10;;;;;;;;;;5097173;28;20020;-72
2021/11/04 13:02:17;;;;;;;1.35;0.10;;;;;;;;;;5076184;28;20111;-72
2021/11/04 13:04:52;;;;;;;1.52;0.10;;;;;;;;;;5085628;28;20445;-72
2021/11/04 13:07:19;;;;;;;0.10;0.10;;;;;;;;;;5084501;28;20097;-72
2021/11/04 13:09:48;;;;;;;0.17;0.08;;;;;;;;;;5074080;28;20046;-72
2021/11/04 13:12:14;;;;;;;0.30;0.10;;;;;;;;;;5091702;28;20008;-73
2021/11/04 13:14:49;;;;;;;1.55;0.10;;;;;;;;;;5099075;28;20024;-73
2021/11/04 13:17:15;;;;;;;0.50;0.10;;;;;;;;;;5104968;28;20022;-72
2021/11/04 13:19:58;;;;;;;0.93;0.10;;;;;;;;;;5086742;28;20019;-73
2021/11/04 13:22:24;;;;;;;0.77;0.10;;;;;;;;;;5084502;28;20028;-73
2021/11/04 13:24:56;;;;;;;0.50;0.00;;;;;;;;;;5075108;28;20471;-72
2021/11/04 13:27:22;;;;;;;0.05;0.00;;;;;;;;;;5095477;28;20039;-73
2021/11/04 13:29:49;;;;;;;0.20;0.00;;;;;;;;;;5097965;28;20071;-72
2021/11/04 13:32:14;;;;;;;0.30;0.00;;;;;;;;;;5081725;28;20031;-72
2021/11/04 13:34:39;;;;;;;0.13;0.10;;;;;;;;;;5096530;28;20024;-72
2021/11/04 13:37:14;;;;;;;0.10;0.00;;;;;;;;;;5097884;28;20024;-72
2021/11/04 13:39:40;;;;;;;0.30;0.10;;;;;;;;;;5094292;28;20396;-73
2021/11/04 13:42:05;;;;;;;0.28;0.10;;;;;;;;;;5096271;28;20019;-72
2021/11/04 13:44:32;;;;;;;0.30;0.08;;;;;;;;;;5094903;28;20020;-72
2021/11/04 13:46:58;;;;;;;0.20;0.10;;;;;;;;;;5080226;28;20031;-71
2021/11/04 13:49:23;;;;;;;0.30;0.10;;;;;;;;;;5098882;28;20032;-73
2021/11/04 13:51:52;;;;;;;0.20;0.10;;;;;;;;;;5087382;28;20027;-71
2021/11/04 13:54:19;;;;;;;0.25;0.05;;;;;;;;;;5080195;28;20074;-71
2021/11/04 13:56:44;;;;;;;0.30;0.10;;;;;;;;;;5094086;28;20103;-72
2021/11/04 13:59:14;;;;;;;0.30;0.10;;;;;;;;;;5094615;28;20099;-72
2021/11/04 14:01:50;;;;;;;0.10;0.10;;;;;;;;;;5091738;28;20026;-72
2021/11/04 14:04:15;;;;;;;0.32;0.10;;;;;;;;;;5101269;28;20023;-73
2021/11/04 14:06:41;;;;;;;0.30;0.10;;;;;;;;;;5085186;28;20024;-72
2021/11/04 14:09:06;;;;;;;1.00;0.10;;;;;;;;;;5091482;28;20301;-72
2021/11/04 14:11:31;;;;;;;3.13;0.10;;;;;;;;;;5090207;28;20066;-72
2021/11/04 14:14:07;;;;;;;0.60;0.43;;;;;;;;;;5083191;28;20050;-70
2021/11/04 14:16:34;;;;;;;0.60;0.30;;;;;;;;;;5103910;28;20020;-72
2021/11/04 14:19:03;;;;;;;1.17;0.30;;;;;;;;;;5092096;28;20102;-72
2021/11/04 14:21:30;;;;;;;0.50;0.30;;;;;;;;;;5090072;28;20028;-71
2021/11/04 14:23:59;;;;;;;0.50;0.20;;;;;;;;;;5095586;28;20032;-72
2021/11/04 14:26:25;;;;;;;0.50;0.10;;;;;;;;;;5100175;28;20028;-72
2021/11/04 14:28:52;;;;;;;0.50;0.45;;;;;;;;;;5099927;28;20032;-72
2021/11/04 14:31:21;;;;;;;0.20;0.10;;;;;;;;;;5092026;28;20048;-72